Time;durP1;ratioP1;P1;durP2;ratioP2;P2;SDS_P1;SDS_P2;PMS_P1;PMS_P2;Temp;Humidity;BMP_temperature;BMP_pressure;BME280_temperature;BME280_humidity;BME280_pressure;Samples;Min_cycle;Max_cycle;Signal;HPM_P1;HPM_P2
2022/10/17 14:44:35;;;;;;;6.55;2.28;;;21.00;93.50;;;;;;5861173;22;8848755;-82
2022/10/17 14:47:06;;;;;;;8.95;2.92;;;20.90;94.00;;;;;;6288598;22;20007;-77
2022/10/17 14:52:13;;;;;;;5.30;3.28;;;20.90;94.00;;;;;;5159158;27;20124;-80
2022/10/17 14:54:45;;;;;;;8.48;3.38;;;20.80;94.40;;;;;;5155642;27;20023;-80
2022/10/17 14:57:42;;;;;;;7.28;2.55;;;20.70;94.10;;;;;;5137370;27;20417;-82
2022/10/17 15:00:19;;;;;;;9.32;2.60;;;20.70;94.40;;;;;;5136161;28;20422;-86
2022/10/17 15:02:48;;;;;;;5.90;2.55;;;20.60;94.50;;;;;;5134818;28;20465;-76
2022/10/17 15:05:16;;;;;;;10.52;3.03;;;20.50;94.60;;;;;;5135495;28;20120;-80
2022/10/17 15:07:44;;;;;;;6.78;2.67;;;20.40;94.70;;;;;;5134913;28;20073;-82
2022/10/17 15:10:32;;;;;;;8.68;3.20;;;20.40;95.00;;;;;;5134682;28;20038;-80
2022/10/17 15:13:00;;;;;;;7.60;2.83;;;20.30;95.30;;;;;;5116443;28;20019;-79
2022/10/17 15:15:30;;;;;;;10.30;3.00;;;20.20;95.50;;;;;;5116551;28;20019;-79
2022/10/17 15:17:57;;;;;;;6.28;2.90;;;20.20;95.80;;;;;;5134525;28;20019;-79
2022/10/17 15:20:28;;;;;;;4.72;2.95;;;20.10;96.00;;;;;;5134524;28;20034;-77
2022/10/17 15:22:59;;;;;;;10.30;3.65;;;20.10;96.20;;;;;;5134389;28;20061;-78
2022/10/17 15:25:29;;;;;;;6.60;2.05;;;20.00;96.30;;;;;;5116353;28;20318;-80
2022/10/17 15:27:57;;;;;;;5.75;2.75;;;20.00;95.80;;;;;;5116060;28;20050;-74
2022/10/17 15:30:31;;;;;;;7.30;3.00;;;20.00;95.90;;;;;;5134320;28;20371;-79
2022/10/17 15:32:59;;;;;;;9.98;2.58;;;20.00;96.10;;;;;;5134244;28;20016;-75
2022/10/17 15:35:27;;;;;;;8.38;2.75;;;19.90;96.00;;;;;;5116230;28;20089;-79
2022/10/17 15:37:54;;;;;;;10.90;2.70;;;19.90;96.00;;;;;;5134233;28;20026;-80
2022/10/17 15:40:27;;;;;;;9.02;2.70;;;19.90;96.10;;;;;;5116240;28;20038;-79
2022/10/17 15:42:55;;;;;;;6.85;2.60;;;19.80;96.20;;;;;;5134311;28;20092;-75
2022/10/17 15:45:23;;;;;;;4.93;2.60;;;19.80;96.30;;;;;;5134741;28;20020;-74
2022/10/17 15:47:53;;;;;;;8.43;3.42;;;19.70;96.50;;;;;;5132902;28;20418;-73
2022/10/17 15:50:20;;;;;;;9.77;2.58;;;19.70;96.60;;;;;;5134023;28;20043;-73
2022/10/17 15:52:52;;;;;;;7.43;2.30;;;19.60;96.80;;;;;;5134151;28;20022;-76
2022/10/17 15:55:20;;;;;;;11.05;2.97;;;19.60;97.00;;;;;;5134052;28;20079;-76
2022/10/17 15:57:47;;;;;;;13.93;2.70;;;19.50;97.10;;;;;;5133980;28;20043;-77
2022/10/17 16:00:31;;;;;;;6.28;2.40;;;19.50;97.40;;;;;;5133763;28;20051;-76
2022/10/17 16:02:59;;;;;;;9.65;3.20;;;19.40;97.70;;;;;;5104220;28;20115;-75
2022/10/17 16:05:27;;;;;;;6.63;2.42;;;19.40;97.90;;;;;;5120165;28;20042;-74
2022/10/17 16:07:56;;;;;;;9.00;2.95;;;19.30;98.10;;;;;;5120452;28;20023;-75
2022/10/17 16:10:27;;;;;;;6.93;2.55;;;19.20;98.50;;;;;;5120014;28;20120;-74
2022/10/17 16:12:55;;;;;;;8.65;2.65;;;19.20;98.90;;;;;;5118569;28;20407;-75
2022/10/17 16:15:27;;;;;;;9.10;3.70;;;19.10;99.30;;;;;;5101570;28;20023;-75
2022/10/17 16:17:56;;;;;;;9.98;3.97;;;19.00;99.60;;;;;;5101503;28;20027;-75
2022/10/17 16:20:24;;;;;;;6.20;3.05;;;19.00;99.90;;;;;;5119814;28;20031;-75
2022/10/17 16:22:58;;;;;;;11.02;3.25;;;18.90;99.90;;;;;;5119554;28;20032;-74
2022/10/17 16:25:28;;;;;;;13.00;5.18;;;18.90;99.90;;;;;;5119428;28;20027;-75
2022/10/17 16:27:58;;;;;;;7.25;2.85;;;18.80;99.90;;;;;;5101246;28;20096;-75
2022/10/17 16:30:27;;;;;;;8.75;2.70;;;18.70;99.90;;;;;;5120007;28;20030;-74
2022/10/17 16:32:55;;;;;;;10.07;3.00;;;18.70;99.90;;;;;;5119358;28;20030;-74
2022/10/17 16:35:29;;;;;;;7.70;2.97;;;18.70;99.90;;;;;;5119608;28;20302;-74
2022/10/17 16:37:56;;;;;;;10.60;3.20;;;18.60;99.90;;;;;;5119756;28;20096;-74
2022/10/17 16:40:24;;;;;;;10.20;2.90;;;18.50;99.90;;;;;;5119176;28;20056;-74
2022/10/17 16:43:05;;;;;;;9.48;3.20;;;18.50;99.90;;;;;;5119153;28;20027;-74
2022/10/17 16:45:34;;;;;;;7.07;3.30;;;18.50;99.90;;;;;;5119074;28;20023;-74
2022/10/17 16:48:02;;;;;;;8.93;3.67;;;18.40;99.90;;;;;;5100944;28;20034;-75
2022/10/17 16:50:34;;;;;;;22.33;9.07;;;18.30;99.90;;;;;;5118790;28;20377;-74
2022/10/17 16:53:02;;;;;;;12.70;6.53;;;18.30;99.90;;;;;;5101088;28;20412;-74
2022/10/17 16:55:30;;;;;;;8.15;3.75;;;18.30;99.90;;;;;;5119032;28;20096;-74
2022/10/17 16:57:58;;;;;;;13.00;4.45;;;18.20;99.90;;;;;;5100689;28;20020;-74
2022/10/17 17:00:26;;;;;;;16.73;7.72;;;18.20;99.90;;;;;;5118835;28;20462;-74
2022/10/17 17:02:54;;;;;;;7.75;4.03;;;18.20;99.90;;;;;;5119320;28;20023;-74
2022/10/17 17:05:21;;;;;;;13.40;5.90;;;18.20;99.90;;;;;;5100840;28;20059;-74
2022/10/17 17:07:48;;;;;;;7.18;4.03;;;18.20;99.90;;;;;;5117619;28;20023;-74
2022/10/17 17:10:16;;;;;;;10.75;5.57;;;18.20;99.90;;;;;;5100471;28;20042;-74
2022/10/17 17:12:43;;;;;;;7.07;3.30;;;18.30;99.90;;;;;;5118758;28;20323;-74
2022/10/17 17:15:11;;;;;;;10.80;4.40;;;18.30;99.90;;;;;;5118252;28;20020;-74
2022/10/17 17:17:38;;;;;;;12.32;4.07;;;18.40;99.90;;;;;;5118515;28;20403;-74
2022/10/17 17:20:06;;;;;;;8.23;3.92;;;18.50;99.90;;;;;;5119028;28;20019;-74
2022/10/17 17:22:34;;;;;;;13.40;4.28;;;18.50;99.90;;;;;;5118648;28;20028;-74
2022/10/17 17:25:02;;;;;;;9.00;3.25;;;18.50;99.90;;;;;;5118459;28;20069;-74
2022/10/17 17:27:29;;;;;;;8.60;3.90;;;18.50;99.90;;;;;;5118204;28;20145;-74
2022/10/17 17:29:57;;;;;;;9.10;4.05;;;18.40;99.90;;;;;;5117060;28;20061;-75
2022/10/17 17:32:24;;;;;;;9.13;3.65;;;18.30;99.90;;;;;;5099939;28;20047;-74
2022/10/17 17:34:52;;;;;;;10.70;4.15;;;18.20;99.90;;;;;;5099495;28;20364;-75
2022/10/17 17:37:20;;;;;;;8.35;4.57;;;18.10;99.90;;;;;;5118887;28;20084;-74
2022/10/17 17:39:47;;;;;;;8.35;3.67;;;18.00;99.90;;;;;;5118598;28;20098;-74
2022/10/17 17:42:15;;;;;;;11.63;4.30;;;18.00;99.90;;;;;;5118035;28;20012;-74
2022/10/17 17:44:43;;;;;;;10.43;4.38;;;17.80;99.90;;;;;;5118043;28;20065;-74
2022/10/17 17:47:11;;;;;;;8.30;3.92;;;17.80;99.90;;;;;;5118202;28;20019;-74
2022/10/17 17:49:38;;;;;;;11.75;4.10;;;17.70;99.90;;;;;;5118078;28;20455;-74
2022/10/17 17:52:06;;;;;;;13.68;4.28;;;17.70;99.90;;;;;;5099687;28;20031;-74
2022/10/17 17:54:34;;;;;;;11.32;4.72;;;17.60;99.90;;;;;;5100072;28;20365;-74
2022/10/17 17:57:02;;;;;;;11.13;4.80;;;17.60;99.90;;;;;;5118279;28;20026;-74
2022/10/17 17:59:30;;;;;;;11.57;5.25;;;17.50;99.90;;;;;;5117872;28;20312;-74
2022/10/17 18:01:57;;;;;;;8.43;4.70;;;17.50;99.90;;;;;;5118198;28;20043;-74
2022/10/17 18:04:26;;;;;;;9.60;4.18;;;17.40;99.90;;;;;;5117667;28;20027;-74
2022/10/17 18:06:54;;;;;;;11.65;5.63;;;17.40;99.90;;;;;;5117492;28;20024;-74
2022/10/17 18:09:23;;;;;;;12.18;5.07;;;17.30;99.90;;;;;;5117581;28;20016;-74
2022/10/17 18:11:50;;;;;;;11.32;4.85;;;17.40;99.90;;;;;;5117671;28;20028;-74
2022/10/17 18:14:22;;;;;;;12.85;5.32;;;17.30;99.90;;;;;;5117584;28;20016;-75
2022/10/17 18:16:51;;;;;;;10.02;5.13;;;17.30;99.90;;;;;;5117608;28;20363;-74
2022/10/17 18:19:18;;;;;;;11.93;4.53;;;17.20;99.90;;;;;;5118450;28;20051;-74
2022/10/17 18:21:47;;;;;;;13.90;5.57;;;17.20;99.90;;;;;;5117555;28;20023;-74
2022/10/17 18:24:15;;;;;;;10.63;5.88;;;17.20;99.90;;;;;;5117997;28;20028;-74
2022/10/17 18:26:42;;;;;;;9.73;6.03;;;17.20;99.90;;;;;;5099234;28;20024;-74
2022/10/17 18:29:11;;;;;;;8.93;5.22;;;17.20;99.90;;;;;;5117350;28;20027;-74
2022/10/17 18:31:39;;;;;;;12.63;6.85;;;17.20;99.90;;;;;;5116088;28;20031;-74
2022/10/17 18:34:06;;;;;;;15.75;6.50;;;17.10;99.90;;;;;;5117319;28;20068;-74
2022/10/17 18:36:36;;;;;;;10.73;5.68;;;17.10;99.90;;;;;;5116118;28;20015;-74
2022/10/17 18:39:04;;;;;;;15.02;7.40;;;17.10;99.90;;;;;;5117229;28;20093;-74
2022/10/17 18:41:32;;;;;;;11.45;6.18;;;17.00;99.90;;;;;;5117149;28;20107;-74
2022/10/17 18:43:59;;;;;;;10.77;6.20;;;17.00;99.90;;;;;;5117324;28;20058;-75
2022/10/17 18:46:29;;;;;;;10.88;6.22;;;17.00;99.90;;;;;;5115983;28;20023;-74
2022/10/17 18:48:57;;;;;;;9.77;6.35;;;16.90;99.90;;;;;;5117119;28;20419;-75
2022/10/17 18:51:25;;;;;;;10.98;6.68;;;16.90;99.90;;;;;;5095301;28;20121;-74
2022/10/17 18:53:55;;;;;;;12.77;6.47;;;16.90;99.90;;;;;;5097107;28;20292;-75
2022/10/17 18:56:23;;;;;;;19.23;6.80;;;16.90;99.90;;;;;;5095564;28;20020;-74
2022/10/17 18:58:51;;;;;;;13.52;6.85;;;16.90;99.90;;;;;;5095555;28;20107;-76
2022/10/17 19:01:23;;;;;;;10.65;6.75;;;16.90;99.90;;;;;;5095361;28;20024;-74
2022/10/17 19:03:52;;;;;;;13.45;7.63;;;16.90;99.90;;;;;;5097027;28;20063;-74
2022/10/17 19:06:26;;;;;;;16.50;7.20;;;16.80;99.90;;;;;;5096529;28;20058;-74
2022/10/17 19:08:54;;;;;;;14.63;6.97;;;16.80;99.90;;;;;;5095474;28;20035;-75
2022/10/17 19:11:24;;;;;;;17.80;8.13;;;16.80;99.90;;;;;;5096927;28;20030;-74
2022/10/17 19:13:52;;;;;;;12.57;7.53;;;16.80;99.90;;;;;;5095474;28;20427;-74
2022/10/17 19:16:29;;;;;;;12.80;7.15;;;16.80;99.90;;;;;;5096972;28;20020;-74
2022/10/17 19:19:10;;;;;;;14.13;7.57;;;16.80;99.90;;;;;;5096518;28;20023;-74
2022/10/17 19:21:38;;;;;;;13.43;8.32;;;16.80;99.90;;;;;;5096688;28;20027;-75
2022/10/17 19:24:07;;;;;;;18.15;8.65;;;16.80;99.90;;;;;;5096396;28;20028;-74
2022/10/17 19:26:38;;;;;;;16.75;10.38;;;16.70;99.90;;;;;;5096644;28;20112;-75
2022/10/17 19:29:06;;;;;;;15.27;8.57;;;16.70;99.90;;;;;;5096294;28;20035;-75
2022/10/17 19:31:34;;;;;;;20.45;9.63;;;16.70;99.90;;;;;;5096255;28;20481;-74
2022/10/17 19:34:02;;;;;;;15.48;9.20;;;16.70;99.90;;;;;;5097048;28;20023;-75
2022/10/17 19:36:32;;;;;;;20.00;9.27;;;16.70;99.90;;;;;;5095351;28;20323;-75
2022/10/17 19:39:03;;;;;;;18.92;9.68;;;16.70;99.90;;;;;;5100667;28;20098;-75
2022/10/17 19:41:31;;;;;;;20.33;9.55;;;16.70;99.90;;;;;;5100057;28;20103;-74
2022/10/17 19:44:00;;;;;;;17.45;11.05;;;16.70;99.90;;;;;;5100079;28;20112;-75
2022/10/17 19:46:28;;;;;;;19.85;11.52;;;16.70;99.90;;;;;;5098818;28;20435;-74
2022/10/17 19:48:56;;;;;;;19.10;11.05;;;16.80;99.90;;;;;;5099954;28;20032;-74
2022/10/17 19:51:25;;;;;;;22.40;11.57;;;16.70;99.90;;;;;;5115632;28;20391;-74
2022/10/17 19:53:53;;;;;;;19.95;11.65;;;16.80;99.90;;;;;;5120966;28;20094;-74
2022/10/17 19:56:22;;;;;;;21.52;11.15;;;16.80;99.90;;;;;;5120136;28;20102;-74
2022/10/17 19:58:50;;;;;;;16.30;11.23;;;16.80;99.90;;;;;;5120328;28;20103;-74
2022/10/17 20:01:20;;;;;;;22.15;12.98;;;16.80;99.90;;;;;;5101923;28;20024;-74
2022/10/17 20:03:48;;;;;;;16.58;10.63;;;16.90;99.90;;;;;;5120416;28;20023;-74
2022/10/17 20:06:16;;;;;;;19.98;11.77;;;16.90;99.90;;;;;;5101825;28;20040;-74
2022/10/17 20:08:44;;;;;;;17.77;11.45;;;16.90;99.90;;;;;;5120562;28;20019;-74
2022/10/17 20:11:15;;;;;;;16.83;11.27;;;16.90;99.90;;;;;;5119772;28;20050;-74
2022/10/17 20:13:43;;;;;;;21.35;12.55;;;16.90;99.90;;;;;;5119940;28;20023;-74
2022/10/17 20:16:15;;;;;;;19.60;13.48;;;16.90;99.90;;;;;;5102199;28;20020;-74
2022/10/17 20:18:42;;;;;;;31.98;15.38;;;16.90;99.90;;;;;;5119751;28;20098;-74
2022/10/17 20:21:13;;;;;;;27.33;13.27;;;16.90;99.90;;;;;;5119607;28;20089;-74
2022/10/17 20:23:40;;;;;;;25.42;13.35;;;16.90;99.90;;;;;;5119821;28;20361;-74
2022/10/17 20:26:13;;;;;;;19.35;13.45;;;16.80;99.90;;;;;;5119575;28;20415;-74
2022/10/17 20:28:41;;;;;;;20.88;13.18;;;16.80;99.90;;;;;;5119547;28;20024;-74
2022/10/17 20:31:10;;;;;;;22.73;14.48;;;16.80;99.90;;;;;;5119696;28;20357;-74
2022/10/17 20:33:37;;;;;;;21.98;15.18;;;16.80;99.90;;;;;;5101532;28;20369;-74
2022/10/17 20:36:12;;;;;;;33.63;16.30;;;16.80;99.90;;;;;;5119674;28;20012;-74
2022/10/17 20:38:53;;;;;;;28.02;14.10;;;16.80;99.90;;;;;;5119361;28;20020;-74
2022/10/17 20:41:21;;;;;;;27.52;15.13;;;16.80;99.90;;;;;;5119203;28;20403;-74
2022/10/17 20:43:53;;;;;;;26.13;14.93;;;16.70;99.90;;;;;;5119601;28;20020;-74
2022/10/17 20:46:22;;;;;;;31.98;14.65;;;16.70;99.90;;;;;;5101109;28;20081;-74
2022/10/17 20:48:53;;;;;;;24.15;15.77;;;16.70;99.90;;;;;;5119073;27;20023;-74
2022/10/17 20:51:21;;;;;;;28.05;16.25;;;16.70;99.90;;;;;;5118789;28;20414;-74
2022/10/17 20:53:48;;;;;;;24.55;15.68;;;16.70;99.90;;;;;;5101080;28;20114;-74
2022/10/17 20:56:28;;;;;;;27.98;15.63;;;16.70;99.90;;;;;;5119012;28;20049;-74
2022/10/17 20:58:58;;;;;;;22.13;15.65;;;16.70;99.90;;;;;;5118910;28;20306;-74
2022/10/17 21:01:26;;;;;;;25.02;15.35;;;16.70;99.90;;;;;;5118906;28;20035;-74
2022/10/17 21:03:54;;;;;;;30.15;15.90;;;16.70;99.90;;;;;;5119022;28;20075;-74
2022/10/17 21:06:21;;;;;;;25.77;14.15;;;16.70;99.90;;;;;;5118805;28;20022;-74
2022/10/17 21:08:51;;;;;;;23.23;15.15;;;16.70;99.90;;;;;;5119078;28;20015;-74
2022/10/17 21:11:23;;;;;;;28.63;16.45;;;16.70;99.90;;;;;;5100450;28;20028;-74
2022/10/17 21:14:03;;;;;;;27.13;15.77;;;16.70;99.90;;;;;;5119063;28;20037;-74
2022/10/17 21:16:32;;;;;;;28.77;15.57;;;16.70;99.90;;;;;;5118601;28;20016;-74
2022/10/17 21:19:00;;;;;;;28.10;17.73;;;16.70;99.90;;;;;;5118600;28;20019;-74
2022/10/17 21:21:31;;;;;;;30.95;17.35;;;16.60;99.90;;;;;;5118491;28;20323;-74
2022/10/17 21:24:02;;;;;;;29.15;17.98;;;16.60;99.90;;;;;;5100526;28;20432;-74
2022/10/17 21:26:32;;;;;;;31.52;18.95;;;16.60;99.90;;;;;;5118393;28;20057;-74
2022/10/17 21:29:04;;;;;;;27.60;18.42;;;16.60;99.90;;;;;;5118309;28;20047;-74
2022/10/17 21:31:33;;;;;;;33.40;18.52;;;16.60;99.90;;;;;;5118179;28;20327;-74
2022/10/17 21:34:08;;;;;;;31.35;20.13;;;16.60;99.90;;;;;;5118979;28;20054;-74
2022/10/17 21:36:35;;;;;;;32.45;19.85;;;16.60;99.90;;;;;;5118188;28;20394;-74
2022/10/17 21:39:04;;;;;;;34.55;19.52;;;16.60;99.90;;;;;;5100113;28;20491;-74
2022/10/17 21:41:34;;;;;;;29.60;18.98;;;16.60;99.90;;;;;;5118102;28;20032;-74
2022/10/17 21:44:12;;;;;;;35.28;19.05;;;16.60;99.90;;;;;;5118158;28;20019;-74
2022/10/17 21:46:40;;;;;;;32.53;20.50;;;16.60;99.90;;;;;;5117981;28;20049;-74
2022/10/17 21:49:08;;;;;;;30.95;19.55;;;16.60;99.90;;;;;;5117998;28;20023;-74
2022/10/17 21:51:35;;;;;;;32.25;20.45;;;16.60;99.90;;;;;;5117575;28;20070;-74
2022/10/17 21:54:03;;;;;;;35.03;20.88;;;16.60;99.90;;;;;;5118030;28;20098;-74
2022/10/17 21:56:31;;;;;;;28.58;19.98;;;16.60;99.90;;;;;;5117797;28;20020;-74
2022/10/17 21:58:58;;;;;;;32.42;19.83;;;16.60;99.90;;;;;;5117635;28;20422;-74
2022/10/17 22:01:31;;;;;;;32.95;19.83;;;16.60;99.90;;;;;;5117652;28;20092;-74
2022/10/17 22:04:02;;;;;;;34.25;20.45;;;16.60;99.90;;;;;;5099792;28;20039;-75
2022/10/17 22:06:32;;;;;;;32.45;20.95;;;16.50;99.90;;;;;;5099557;28;20023;-74
2022/10/17 22:09:00;;;;;;;35.63;21.17;;;16.50;99.90;;;;;;5118195;28;20020;-74
2022/10/17 22:11:31;;;;;;;36.25;21.95;;;16.50;99.90;;;;;;5117478;28;20051;-74
2022/10/17 22:14:00;;;;;;;35.72;20.95;;;16.50;99.90;;;;;;5117656;28;20041;-74
2022/10/17 22:16:28;;;;;;;38.28;22.85;;;16.40;99.90;;;;;;5117501;28;20020;-74
2022/10/17 22:19:00;;;;;;;34.90;21.73;;;16.40;99.90;;;;;;5117797;28;20047;-74
2022/10/17 22:21:28;;;;;;;35.83;21.30;;;16.40;99.90;;;;;;5117931;28;20030;-74
2022/10/17 22:24:00;;;;;;;32.10;20.25;;;16.40;99.90;;;;;;5117558;28;20020;-74
2022/10/17 22:26:29;;;;;;;42.20;23.45;;;16.40;99.90;;;;;;5117370;28;20123;-74
2022/10/17 22:28:56;;;;;;;33.30;22.40;;;16.30;99.90;;;;;;5099253;28;20084;-74
2022/10/17 22:31:24;;;;;;;36.53;22.17;;;16.30;99.90;;;;;;5099151;28;20051;-75
2022/10/17 22:33:52;;;;;;;42.35;23.15;;;16.30;99.90;;;;;;5117401;28;20026;-74
2022/10/17 22:36:19;;;;;;;40.05;21.25;;;16.30;99.90;;;;;;5117209;28;20026;-74
2022/10/17 22:38:46;;;;;;;36.13;20.52;;;16.30;99.90;;;;;;5099164;28;20019;-74
2022/10/17 22:41:13;;;;;;;36.92;21.80;;;16.20;99.90;;;;;;5099118;28;20020;-74
2022/10/17 22:43:41;;;;;;;37.90;22.23;;;16.20;99.90;;;;;;5117214;28;20026;-74
2022/10/17 22:46:11;;;;;;;39.80;23.63;;;16.20;99.90;;;;;;5117075;28;20028;-74
2022/10/17 22:48:39;;;;;;;36.90;22.98;;;16.20;99.90;;;;;;5117219;28;20051;-74
2022/10/17 22:51:07;;;;;;;37.65;23.05;;;16.20;99.90;;;;;;5116746;28;20101;-75
2022/10/17 22:53:36;;;;;;;48.35;22.73;;;16.20;99.90;;;;;;5117060;28;20023;-74
2022/10/17 22:56:13;;;;;;;40.67;23.60;;;16.20;99.90;;;;;;5117273;28;20052;-74
2022/10/17 22:58:41;;;;;;;39.45;23.20;;;16.10;99.90;;;;;;5117178;28;20015;-74
2022/10/17 23:01:12;;;;;;;40.28;22.50;;;16.10;99.90;;;;;;5116907;28;20058;-74
2022/10/17 23:03:40;;;;;;;45.70;23.60;;;16.10;99.90;;;;;;5116964;28;20015;-75
2022/10/17 23:06:07;;;;;;;43.92;23.23;;;16.10;99.90;;;;;;5116858;28;20073;-75
2022/10/17 23:08:34;;;;;;;47.00;22.30;;;16.10;99.90;;;;;;5098936;28;20031;-74
2022/10/17 23:11:02;;;;;;;41.90;22.88;;;16.10;99.90;;;;;;5116784;28;20023;-75
2022/10/17 23:13:29;;;;;;;42.97;23.17;;;16.10;99.90;;;;;;5120470;28;20027;-74
2022/10/17 23:15:57;;;;;;;38.70;23.40;;;16.10;99.90;;;;;;5121495;28;20022;-74
2022/10/17 23:18:25;;;;;;;42.85;23.33;;;16.10;99.90;;;;;;5121384;28;20047;-75
2022/10/17 23:20:53;;;;;;;42.75;23.25;;;16.10;99.90;;;;;;5103077;28;20365;-75
2022/10/17 23:23:21;;;;;;;42.00;24.58;;;16.10;99.90;;;;;;5102718;28;20023;-74
2022/10/17 23:25:49;;;;;;;42.78;23.25;;;16.00;99.90;;;;;;5102663;28;20023;-75
2022/10/17 23:28:16;;;;;;;43.80;23.92;;;16.00;99.90;;;;;;5121171;28;20027;-75
2022/10/17 23:30:44;;;;;;;42.97;23.23;;;16.00;99.90;;;;;;5120608;28;20020;-74
2022/10/17 23:33:13;;;;;;;44.85;23.63;;;16.00;99.90;;;;;;5120669;28;20024;-75
2022/10/17 23:35:41;;;;;;;40.70;22.35;;;16.00;99.90;;;;;;5120617;28;20019;-74
2022/10/17 23:38:08;;;;;;;40.45;23.02;;;16.00;99.90;;;;;;5121299;28;20024;-75
2022/10/17 23:40:36;;;;;;;36.08;21.98;;;15.90;99.90;;;;;;5120475;28;20038;-74
2022/10/17 23:43:04;;;;;;;41.45;22.80;;;16.00;99.90;;;;;;5120958;28;20019;-74
2022/10/17 23:45:31;;;;;;;41.53;23.27;;;15.90;99.90;;;;;;5102277;28;20035;-74
2022/10/17 23:47:58;;;;;;;42.38;23.52;;;15.90;99.90;;;;;;5120509;28;20019;-75
2022/10/17 23:50:26;;;;;;;44.00;22.92;;;15.90;99.90;;;;;;5119930;28;20123;-75
2022/10/17 23:52:54;;;;;;;41.92;22.88;;;15.90;99.90;;;;;;5120864;28;20018;-75
2022/10/17 23:55:21;;;;;;;41.80;22.90;;;15.80;99.90;;;;;;5120765;28;20026;-75
2022/10/17 23:57:48;;;;;;;42.92;24.23;;;15.80;99.90;;;;;;5120711;28;20040;-75
